Stellar Stream — 3EJI6 — position and weather

sailwx.info

Track history (hours):
 
Tides and Currents Weather Stations Pressure Air Temp Water Temp Dewpoint Dewpoint Depression Visibility Wind Speed Wind Dir Waves Ship Positions

Stellar Stream

Last reported at 2018-Apr-19 19:01 UTC. Time now 2018-Apr-19 19:23 UTC.
Position N 50°07' W 002°15'.

Length 186 m; draft 8.8 m.

Type: Ship (hazmat cat B). MMSI: 374402000.

Date/timePositionNaut miles runAvg speedWind from/ knotsBaromVisibWave heightAir tempDewpointWater temp
2018-Apr-19 19:01N 50°07' W 002°15'713.1
2018-Apr-19 18:30N 50°09' W 002°05'714.2
2018-Apr-19 18:01N 50°11' W 001°54'815.1
2018-Apr-19 17:30N 50°13' W 001°43'815.5
2018-Apr-19 17:00N 50°15' W 001°31'815.8
2018-Apr-19 16:30N 50°17' W 001°19'816.1
2018-Apr-19 16:00N 50°19' W 001°07'816.2
2018-Apr-19 15:30N 50°21' W 000°55'815.0
2018-Apr-19 15:00N 50°23' W 000°43'714.3
2018-Apr-19 14:31N 50°25' W 000°33'713.7
2018-Apr-19 14:00N 50°27' W 000°22'613.0
2018-Apr-19 13:30N 50°29' W 000°12'612.2
2018-Apr-19 13:00N 50°30' W 000°03'611.5
2018-Apr-19 12:30N 50°32' E 000°06'510.9
2018-Apr-19 12:00N 50°33' E 000°14'510.3
2018-Apr-19 11:30N 50°34' E 000°22'510.2
2018-Apr-19 11:00N 50°36' E 000°29'510.5
2018-Apr-19 10:30N 50°38' E 000°37'611.4
2018-Apr-19 10:00N 50°41' E 000°44'612.4
2018-Apr-19 09:30N 50°45' E 000°52'714.7
2018-Apr-19 09:00N 50°50' E 001°01'815.1
2018-Apr-19 08:30N 50°55' E 001°10'815.0
2018-Apr-19 08:00N 50°60' E 001°19'815.0
2018-Apr-19 07:30N 51°04' E 001°29'714.1
2018-Apr-19 07:01N 51°09' E 001°37'713.1
2018-Apr-19 06:30N 51°13' E 001°45'612.4
2018-Apr-19 06:01N 51°18' E 001°50'611.8
2018-Apr-19 05:31N 51°23' E 001°55'611.4
2018-Apr-19 05:01N 51°28' E 002°00'611.0
2018-Apr-19 04:30N 51°32' E 002°07'510.7
2018-Apr-19 04:01N 51°36' E 002°12'510.5
2018-Apr-19 03:30N 51°40' E 002°18'510.5
2018-Apr-19 03:00N 51°44' E 002°24'510.8
2018-Apr-19 02:31N 51°48' E 002°29'611.3
2018-Apr-19 01:58N 51°52' E 002°36'612.0
2018-Apr-19 01:30N 51°57' E 002°41'712.4
2018-Apr-19 00:58N 52°01' E 002°49'713.6
2018-Apr-19 00:28N 52°02' E 003°00'715.1
2018-Apr-18 23:59N 52°02' E 003°12'715.2
2018-Apr-18 23:30N 52°03' E 003°24'815.4
2018-Apr-18 23:00N 52°03' E 003°36'713.5
2018-Apr-18 22:30N 52°03' E 003°47'4 8.5
2018-Apr-18 22:00N 52°02' E 003°54'612.0
2018-Apr-18 21:30N 51°60' E 004°03'612.5
2018-Apr-18 21:00N 51°56' E 004°12'510.2
2018-Apr-18 20:30N 51°54' E 004°18'1 2.1
2018-Apr-18 19:59N 51°53' E 004°18'0 0.0
2018-Apr-18 19:29N 51°53' E 004°18'0 0.0
2018-Apr-18 18:59N 51°53' E 004°18'0 0.0
2018-Apr-18 18:17N 51°53' E 004°18'0 0.0
2018-Apr-18 17:56N 51°53' E 004°18'0 0.0
2018-Apr-18 17:29N 51°53' E 004°18'0 0.0
2018-Apr-18 16:59N 51°53' E 004°18'0 0.0
2018-Apr-18 16:29N 51°53' E 004°18'0 0.0
2018-Apr-18 15:59N 51°53' E 004°18'0 0.0
2018-Apr-18 15:29N 51°53' E 004°18'0 0.0
2018-Apr-18 14:59N 51°53' E 004°18'0 0.0
2018-Apr-18 14:23N 51°53' E 004°18'0 0.0
2018-Apr-18 13:59N 51°53' E 004°18'0 0.0
2018-Apr-18 13:26N 51°53' E 004°18'0 0.0
2018-Apr-18 12:59N 51°53' E 004°18'0 0.0
2018-Apr-18 12:29N 51°53' E 004°18'0 0.0
2018-Apr-18 11:59N 51°53' E 004°18'0 0.0
2018-Apr-18 11:29N 51°53' E 004°18'0 0.0
2018-Apr-18 10:56N 51°53' E 004°18'0 0.0
2018-Apr-18 10:17N 51°53' E 004°18'0 0.0
2018-Apr-18 09:59N 51°53' E 004°18'0 0.0
2018-Apr-18 09:26N 51°53' E 004°18'0 0.0
2018-Apr-18 08:59N 51°53' E 004°18'0 0.0
2018-Apr-18 08:26N 51°53' E 004°18'0 0.0
2018-Apr-18 07:59N 51°53' E 004°18'0 0.0
2018-Apr-18 07:29N 51°53' E 004°18'0 0.0
2018-Apr-18 06:56N 51°53' E 004°18'0 0.0
2018-Apr-18 06:29N 51°53' E 004°18'0 0.0
2018-Apr-18 05:59N 51°53' E 004°18'0 0.0
2018-Apr-18 05:29N 51°53' E 004°18'0 0.0
2018-Apr-18 04:59N 51°53' E 004°18'0 0.0
2018-Apr-18 04:29N 51°53' E 004°18'0 0.0
2018-Apr-18 03:59N 51°53' E 004°18'0 0.0
2018-Apr-18 03:29N 51°53' E 004°18'0 0.0
2018-Apr-18 02:56N 51°53' E 004°18'0 0.0
2018-Apr-18 02:29N 51°53' E 004°18'0 0.0
2018-Apr-18 01:59N 51°53' E 004°18'0 0.0
2018-Apr-18 01:29N 51°53' E 004°18'0 0.0
2018-Apr-18 00:59N 51°53' E 004°18'0 0.0
2018-Apr-18 00:23N 51°53' E 004°18'0 0.0
2018-Apr-17 23:59N 51°53' E 004°18'0 0.0
2018-Apr-17 23:26N 51°53' E 004°18'0 0.0
2018-Apr-17 23:00N 51°53' E 004°18'0 1.0
2018-Apr-17 22:30N 51°53' E 004°18'1 2.5
2018-Apr-17 22:00N 51°54' E 004°17'4 7.3
2018-Apr-17 21:30N 51°56' E 004°13'4 8.6
2018-Apr-17 21:00N 51°59' E 004°07'4 8.7
2018-Apr-17 20:30N 52°00' E 004°00'4 7.3
2018-Apr-17 20:00N 51°59' E 004°06'4 8.7
2018-Apr-17 19:30N 51°56' E 004°11'1 1.1
2018-Apr-17 19:00N 51°56' E 004°12'0 0.0
2018-Apr-17 18:30N 51°56' E 004°12'0 0.0
2018-Apr-17 18:00N 51°56' E 004°12'0 0.0
2018-Apr-17 17:30N 51°56' E 004°12'0 0.0
2018-Apr-17 17:00N 51°56' E 004°12'0 0.0
2018-Apr-17 16:27N 51°56' E 004°12'0 0.0
2018-Apr-17 16:00N 51°56' E 004°12'0 0.0
2018-Apr-17 15:30N 51°56' E 004°12'0 0.0
2018-Apr-17 15:00N 51°56' E 004°12'0 0.0
2018-Apr-17 14:27N 51°56' E 004°12'0 0.0
2018-Apr-17 14:00N 51°56' E 004°12'0 0.0
2018-Apr-17 13:30N 51°56' E 004°12'0 0.0
2018-Apr-17 13:00N 51°56' E 004°12'0 0.0
2018-Apr-17 12:30N 51°56' E 004°12'0 0.0
2018-Apr-17 11:57N 51°56' E 004°12'0 0.0
2018-Apr-17 11:30N 51°56' E 004°12'0 0.0
2018-Apr-17 11:00N 51°56' E 004°12'0 0.0
2018-Apr-17 10:27N 51°56' E 004°12'0 0.0
2018-Apr-17 10:00N 51°56' E 004°12'0 0.0
2018-Apr-17 09:30N 51°56' E 004°12'0 0.0
2018-Apr-17 08:54N 51°56' E 004°12'0 0.0
2018-Apr-17 08:30N 51°56' E 004°12'0 0.0
2018-Apr-17 08:00N 51°56' E 004°12'0 0.0
2018-Apr-17 07:30N 51°56' E 004°12'0 0.0
2018-Apr-17 06:48N 51°56' E 004°12'0 0.0
2018-Apr-17 06:30N 51°56' E 004°12'0 0.0
2018-Apr-17 06:00N 51°56' E 004°12'0 0.0
2018-Apr-17 05:27N 51°56' E 004°12'0 0.0
2018-Apr-17 04:54N 51°56' E 004°12'0 0.0
2018-Apr-17 04:30N 51°56' E 004°12'0 0.0
2018-Apr-17 04:00N 51°56' E 004°12'0 0.0
2018-Apr-17 03:30N 51°56' E 004°12'0 0.0
2018-Apr-17 03:00N 51°56' E 004°12'0 0.0
2018-Apr-17 02:30N 51°56' E 004°12'0 0.0
2018-Apr-17 02:00N 51°56' E 004°12'0 0.0
2018-Apr-17 01:27N 51°56' E 004°12'0 0.0
2018-Apr-17 00:57N 51°56' E 004°12'0 0.0
2018-Apr-17 00:30N 51°56' E 004°12'0 0.0
2018-Apr-16 23:39N 51°56' E 004°12'0 0.0
2018-Apr-16 23:18N 51°56' E 004°12'0 0.0
2018-Apr-16 23:00N 51°56' E 004°12'0 0.0
2018-Apr-16 22:30N 51°56' E 004°12'0 0.0
2018-Apr-16 22:00N 51°56' E 004°12'0 0.0
2018-Apr-16 21:27N 51°56' E 004°12'0 0.0
2018-Apr-16 21:00N 51°56' E 004°12'0 0.0
2018-Apr-16 20:30N 51°56' E 004°12'0 0.0
2018-Apr-16 20:00N 51°56' E 004°12'0 0.0
2018-Apr-16 19:27N 51°56' E 004°12'0 0.0
2018-Apr-16 18:51N 51°56' E 004°12'0 0.0
2018-Apr-16 18:30N 51°56' E 004°12'0 0.0
2018-Apr-16 17:57N 51°56' E 004°12'0 0.0
2018-Apr-16 17:30N 51°56' E 004°12'0 0.0
2018-Apr-16 16:57N 51°56' E 004°12'0 0.0
2018-Apr-16 16:30N 51°56' E 004°12'0 0.0
2018-Apr-16 16:00N 51°56' E 004°12'0 0.0
2018-Apr-16 15:30N 51°56' E 004°12'0 0.0
2018-Apr-16 15:00N 51°56' E 004°12'0 0.0
2018-Apr-16 14:24N 51°56' E 004°12'0 0.0
2018-Apr-16 13:54N 51°56' E 004°12'0 0.0
2018-Apr-16 13:30N 51°56' E 004°12'0 0.0
2018-Apr-16 12:57N 51°56' E 004°12'0 0.0
2018-Apr-16 12:30N 51°56' E 004°12'0 0.0
2018-Apr-16 11:51N 51°56' E 004°12'0 0.0
2018-Apr-16 11:30N 51°56' E 004°12'0 0.0
2018-Apr-16 11:00N 51°56' E 004°12'0 0.0
2018-Apr-16 10:30N 51°56' E 004°12'0 0.0
2018-Apr-16 10:00N 51°56' E 004°12'0 0.0
2018-Apr-16 09:30N 51°56' E 004°12'0 0.0
2018-Apr-16 09:00N 51°56' E 004°12'0 0.0
2018-Apr-16 08:30N 51°56' E 004°12'0 0.0
2018-Apr-16 08:00N 51°56' E 004°12'0 0.0
2018-Apr-16 07:30N 51°56' E 004°12'0 0.1
2018-Apr-16 07:00N 51°56' E 004°12'2 3.1
2018-Apr-16 06:30N 51°57' E 004°10'4 8.8
2018-Apr-16 06:00N 51°59' E 004°04'5 9.8
2018-Apr-16 05:30N 52°00' E 003°56'510.9
2018-Apr-16 05:00N 51°60' E 003°48'611.3
2018-Apr-16 04:30N 51°58' E 003°39'611.7
2018-Apr-16 04:00N 51°56' E 003°30'610.7
2018-Apr-16 03:27N 51°54' E 003°21'512.1
2018-Apr-16 03:00N 51°53' E 003°12'2313.8
2018-Apr-16 01:18N 51°45' E 002°37'615.6
2018-Apr-16 00:55N 51°40' E 002°30'716.0
2018-Apr-16 00:30N 51°35' E 002°23'816.0
2018-Apr-16 00:00N 51°29' E 002°15'815.5
2018-Apr-15 23:30N 51°22' E 002°10'815.6
2018-Apr-15 23:00N 51°15' E 002°05'815.3
2018-Apr-15 22:30N 51°11' E 001°55'815.3
2018-Apr-15 22:00N 51°07' E 001°45'714.6
2018-Apr-15 21:31N 51°02' E 001°36'713.9
2018-Apr-15 21:00N 50°56' E 001°29'812.9
2018-Apr-15 20:24N 50°49' E 001°24'1612.5
2018-Apr-15 19:07N 50°36' E 001°11'213.5
2018-Apr-15 18:56N 50°34' E 001°08'1213.1
2018-Apr-15 18:02N 50°27' E 000°53'113.3
2018-Apr-15 17:59N 50°27' E 000°51'1213.2
2018-Apr-15 17:03N 50°24' E 000°33'113.0
2018-Apr-15 17:00N 50°24' E 000°32'712.8
2018-Apr-15 16:29N 50°22' E 000°22'612.5
2018-Apr-15 16:00N 50°20' E 000°13'612.4
2018-Apr-15 15:30N 50°19' E 000°03'612.2
2018-Apr-15 15:00N 50°18' W 000°06'612.1
2018-Apr-15 14:30N 50°17' W 000°15'611.8
2018-Apr-15 14:00N 50°15' W 000°24'611.6
2018-Apr-15 13:30N 50°14' W 000°33'611.5
2018-Apr-15 13:00N 50°12' W 000°42'611.4
2018-Apr-15 12:30N 50°11' W 000°50'611.8
2018-Apr-15 12:00N 50°09' W 000°59'612.3
2018-Apr-15 11:30N 50°08' W 001°08'713.0
2018-Apr-15 11:00N 50°06' W 001°18'713.8
2018-Apr-15 10:30N 50°05' W 001°29'714.6
2018-Apr-15 10:00N 50°03' W 001°40'815.3
2018-Apr-15 09:30N 50°02' W 001°52'816.0
2018-Apr-15 09:00N 49°58' W 002°03'816.5
2018-Apr-15 08:30N 49°56' W 002°15'1516.2
2018-Apr-15 07:35N 49°53' W 002°38'115.8
2018-Apr-15 07:30N 49°52' W 002°40'815.9
2018-Apr-15 07:00N 49°50' W 002°51'816.0
2018-Apr-15 06:30N 49°45' W 003°02'815.8
2018-Apr-15 06:01N 49°41' W 003°12'8015.4
2018-Apr-15 00:48N 49°02' W 004°60'514.4
2018-Apr-15 00:26N 48°59' W 005°06'614.1
2018-Apr-14 23:59N 48°56' W 005°14'713.7
2018-Apr-14 23:30N 48°52' W 005°23'713.5
2018-Apr-14 23:00N 48°49' W 005°32'3012.8
2018-Apr-14 20:38N 48°23' W 005°54'  
Track history (hours):
 
Tides and Currents Weather Stations Pressure Air Temp Water Temp Dewpoint Dewpoint Depression Visibility Wind Speed Wind Dir Waves Ship Positions

Stellar Stream

Last reported at 2018-Apr-19 19:01 UTC. Time now 2018-Apr-19 19:23 UTC.
Position N 50°07' W 002°15'.

Length 186 m; draft 8.8 m.

Type: Ship (hazmat cat B). MMSI: 374402000.

Date/timePositionNaut miles runAvg speedWind from/ knotsBaromVisibWave heightAir tempDewpointWater temp
2018-Apr-19 19:01N 50°07' W 002°15'713.1
2018-Apr-19 18:30N 50°09' W 002°05'714.2
2018-Apr-19 18:01N 50°11' W 001°54'815.1
2018-Apr-19 17:30N 50°13' W 001°43'815.5
2018-Apr-19 17:00N 50°15' W 001°31'815.8
2018-Apr-19 16:30N 50°17' W 001°19'816.1
2018-Apr-19 16:00N 50°19' W 001°07'816.2
2018-Apr-19 15:30N 50°21' W 000°55'815.0
2018-Apr-19 15:00N 50°23' W 000°43'714.3
2018-Apr-19 14:31N 50°25' W 000°33'713.7
2018-Apr-19 14:00N 50°27' W 000°22'613.0
2018-Apr-19 13:30N 50°29' W 000°12'612.2
2018-Apr-19 13:00N 50°30' W 000°03'611.5
2018-Apr-19 12:30N 50°32' E 000°06'510.9
2018-Apr-19 12:00N 50°33' E 000°14'510.3
2018-Apr-19 11:30N 50°34' E 000°22'510.2
2018-Apr-19 11:00N 50°36' E 000°29'510.5
2018-Apr-19 10:30N 50°38' E 000°37'611.4
2018-Apr-19 10:00N 50°41' E 000°44'612.4
2018-Apr-19 09:30N 50°45' E 000°52'714.7
2018-Apr-19 09:00N 50°50' E 001°01'815.1
2018-Apr-19 08:30N 50°55' E 001°10'815.0
2018-Apr-19 08:00N 50°60' E 001°19'815.0
2018-Apr-19 07:30N 51°04' E 001°29'714.1
2018-Apr-19 07:01N 51°09' E 001°37'713.1
2018-Apr-19 06:30N 51°13' E 001°45'612.4
2018-Apr-19 06:01N 51°18' E 001°50'611.8
2018-Apr-19 05:31N 51°23' E 001°55'611.4
2018-Apr-19 05:01N 51°28' E 002°00'611.0
2018-Apr-19 04:30N 51°32' E 002°07'510.7
2018-Apr-19 04:01N 51°36' E 002°12'510.5
2018-Apr-19 03:30N 51°40' E 002°18'510.5
2018-Apr-19 03:00N 51°44' E 002°24'510.8
2018-Apr-19 02:31N 51°48' E 002°29'611.3
2018-Apr-19 01:58N 51°52' E 002°36'612.0
2018-Apr-19 01:30N 51°57' E 002°41'712.4
2018-Apr-19 00:58N 52°01' E 002°49'713.6
2018-Apr-19 00:28N 52°02' E 003°00'715.1
2018-Apr-18 23:59N 52°02' E 003°12'715.2
2018-Apr-18 23:30N 52°03' E 003°24'815.4
2018-Apr-18 23:00N 52°03' E 003°36'713.5
2018-Apr-18 22:30N 52°03' E 003°47'4 8.5
2018-Apr-18 22:00N 52°02' E 003°54'612.0
2018-Apr-18 21:30N 51°60' E 004°03'612.5
2018-Apr-18 21:00N 51°56' E 004°12'510.2
2018-Apr-18 20:30N 51°54' E 004°18'1 2.1
2018-Apr-18 19:59N 51°53' E 004°18'0 0.0
2018-Apr-18 19:29N 51°53' E 004°18'0 0.0
2018-Apr-18 18:59N 51°53' E 004°18'0 0.0
2018-Apr-18 18:17N 51°53' E 004°18'0 0.0
2018-Apr-18 17:56N 51°53' E 004°18'0 0.0
2018-Apr-18 17:29N 51°53' E 004°18'0 0.0
2018-Apr-18 16:59N 51°53' E 004°18'0 0.0
2018-Apr-18 16:29N 51°53' E 004°18'0 0.0
2018-Apr-18 15:59N 51°53' E 004°18'0 0.0
2018-Apr-18 15:29N 51°53' E 004°18'0 0.0
2018-Apr-18 14:59N 51°53' E 004°18'0 0.0
2018-Apr-18 14:23N 51°53' E 004°18'0 0.0
2018-Apr-18 13:59N 51°53' E 004°18'0 0.0
2018-Apr-18 13:26N 51°53' E 004°18'0 0.0
2018-Apr-18 12:59N 51°53' E 004°18'0 0.0
2018-Apr-18 12:29N 51°53' E 004°18'0 0.0
2018-Apr-18 11:59N 51°53' E 004°18'0 0.0
2018-Apr-18 11:29N 51°53' E 004°18'0 0.0
2018-Apr-18 10:56N 51°53' E 004°18'0 0.0
2018-Apr-18 10:17N 51°53' E 004°18'0 0.0
2018-Apr-18 09:59N 51°53' E 004°18'0 0.0
2018-Apr-18 09:26N 51°53' E 004°18'0 0.0
2018-Apr-18 08:59N 51°53' E 004°18'0 0.0
2018-Apr-18 08:26N 51°53' E 004°18'0 0.0
2018-Apr-18 07:59N 51°53' E 004°18'0 0.0
2018-Apr-18 07:29N 51°53' E 004°18'0 0.0
2018-Apr-18 06:56N 51°53' E 004°18'0 0.0
2018-Apr-18 06:29N 51°53' E 004°18'0 0.0
2018-Apr-18 05:59N 51°53' E 004°18'0 0.0
2018-Apr-18 05:29N 51°53' E 004°18'0 0.0
2018-Apr-18 04:59N 51°53' E 004°18'0 0.0
2018-Apr-18 04:29N 51°53' E 004°18'0 0.0
2018-Apr-18 03:59N 51°53' E 004°18'0 0.0
2018-Apr-18 03:29N 51°53' E 004°18'0 0.0
2018-Apr-18 02:56N 51°53' E 004°18'0 0.0
2018-Apr-18 02:29N 51°53' E 004°18'0 0.0
2018-Apr-18 01:59N 51°53' E 004°18'0 0.0
2018-Apr-18 01:29N 51°53' E 004°18'0 0.0
2018-Apr-18 00:59N 51°53' E 004°18'0 0.0
2018-Apr-18 00:23N 51°53' E 004°18'0 0.0
2018-Apr-17 23:59N 51°53' E 004°18'0 0.0
2018-Apr-17 23:26N 51°53' E 004°18'0 0.0
2018-Apr-17 23:00N 51°53' E 004°18'0 1.0
2018-Apr-17 22:30N 51°53' E 004°18'1 2.5
2018-Apr-17 22:00N 51°54' E 004°17'4 7.3
2018-Apr-17 21:30N 51°56' E 004°13'4 8.6
2018-Apr-17 21:00N 51°59' E 004°07'4 8.7
2018-Apr-17 20:30N 52°00' E 004°00'4 7.3
2018-Apr-17 20:00N 51°59' E 004°06'4 8.7
2018-Apr-17 19:30N 51°56' E 004°11'1 1.1
2018-Apr-17 19:00N 51°56' E 004°12'0 0.0
2018-Apr-17 18:30N 51°56' E 004°12'0 0.0
2018-Apr-17 18:00N 51°56' E 004°12'0 0.0
2018-Apr-17 17:30N 51°56' E 004°12'0 0.0
2018-Apr-17 17:00N 51°56' E 004°12'0 0.0
2018-Apr-17 16:27N 51°56' E 004°12'0 0.0
2018-Apr-17 16:00N 51°56' E 004°12'0 0.0
2018-Apr-17 15:30N 51°56' E 004°12'0 0.0
2018-Apr-17 15:00N 51°56' E 004°12'0 0.0
2018-Apr-17 14:27N 51°56' E 004°12'0 0.0
2018-Apr-17 14:00N 51°56' E 004°12'0 0.0
2018-Apr-17 13:30N 51°56' E 004°12'0 0.0
2018-Apr-17 13:00N 51°56' E 004°12'0 0.0
2018-Apr-17 12:30N 51°56' E 004°12'0 0.0
2018-Apr-17 11:57N 51°56' E 004°12'0 0.0
2018-Apr-17 11:30N 51°56' E 004°12'0 0.0
2018-Apr-17 11:00N 51°56' E 004°12'0 0.0
2018-Apr-17 10:27N 51°56' E 004°12'0 0.0
2018-Apr-17 10:00N 51°56' E 004°12'0 0.0
2018-Apr-17 09:30N 51°56' E 004°12'0 0.0
2018-Apr-17 08:54N 51°56' E 004°12'0 0.0
2018-Apr-17 08:30N 51°56' E 004°12'0 0.0
2018-Apr-17 08:00N 51°56' E 004°12'0 0.0
2018-Apr-17 07:30N 51°56' E 004°12'0 0.0
2018-Apr-17 06:48N 51°56' E 004°12'0 0.0
2018-Apr-17 06:30N 51°56' E 004°12'0 0.0
2018-Apr-17 06:00N 51°56' E 004°12'0 0.0
2018-Apr-17 05:27N 51°56' E 004°12'0 0.0
2018-Apr-17 04:54N 51°56' E 004°12'0 0.0
2018-Apr-17 04:30N 51°56' E 004°12'0 0.0
2018-Apr-17 04:00N 51°56' E 004°12'0 0.0
2018-Apr-17 03:30N 51°56' E 004°12'0 0.0
2018-Apr-17 03:00N 51°56' E 004°12'0 0.0
2018-Apr-17 02:30N 51°56' E 004°12'0 0.0
2018-Apr-17 02:00N 51°56' E 004°12'0 0.0
2018-Apr-17 01:27N 51°56' E 004°12'0 0.0
2018-Apr-17 00:57N 51°56' E 004°12'0 0.0
2018-Apr-17 00:30N 51°56' E 004°12'0 0.0
2018-Apr-16 23:39N 51°56' E 004°12'0 0.0
2018-Apr-16 23:18N 51°56' E 004°12'0 0.0
2018-Apr-16 23:00N 51°56' E 004°12'0 0.0
2018-Apr-16 22:30N 51°56' E 004°12'0 0.0
2018-Apr-16 22:00N 51°56' E 004°12'0 0.0
2018-Apr-16 21:27N 51°56' E 004°12'0 0.0
2018-Apr-16 21:00N 51°56' E 004°12'0 0.0
2018-Apr-16 20:30N 51°56' E 004°12'0 0.0
2018-Apr-16 20:00N 51°56' E 004°12'0 0.0
2018-Apr-16 19:27N 51°56' E 004°12'0 0.0
2018-Apr-16 18:51N 51°56' E 004°12'0 0.0
2018-Apr-16 18:30N 51°56' E 004°12'0 0.0
2018-Apr-16 17:57N 51°56' E 004°12'0 0.0
2018-Apr-16 17:30N 51°56' E 004°12'0 0.0
2018-Apr-16 16:57N 51°56' E 004°12'0 0.0
2018-Apr-16 16:30N 51°56' E 004°12'0 0.0
2018-Apr-16 16:00N 51°56' E 004°12'0 0.0
2018-Apr-16 15:30N 51°56' E 004°12'0 0.0
2018-Apr-16 15:00N 51°56' E 004°12'0 0.0
2018-Apr-16 14:24N 51°56' E 004°12'0 0.0
2018-Apr-16 13:54N 51°56' E 004°12'0 0.0
2018-Apr-16 13:30N 51°56' E 004°12'0 0.0
2018-Apr-16 12:57N 51°56' E 004°12'0 0.0
2018-Apr-16 12:30N 51°56' E 004°12'0 0.0
2018-Apr-16 11:51N 51°56' E 004°12'0 0.0
2018-Apr-16 11:30N 51°56' E 004°12'0 0.0
2018-Apr-16 11:00N 51°56' E 004°12'0 0.0
2018-Apr-16 10:30N 51°56' E 004°12'0 0.0
2018-Apr-16 10:00N 51°56' E 004°12'0 0.0
2018-Apr-16 09:30N 51°56' E 004°12'0 0.0
2018-Apr-16 09:00N 51°56' E 004°12'0 0.0
2018-Apr-16 08:30N 51°56' E 004°12'0 0.0
2018-Apr-16 08:00N 51°56' E 004°12'0 0.0
2018-Apr-16 07:30N 51°56' E 004°12'0 0.1
2018-Apr-16 07:00N 51°56' E 004°12'2 3.1
2018-Apr-16 06:30N 51°57' E 004°10'4 8.8
2018-Apr-16 06:00N 51°59' E 004°04'5 9.8
2018-Apr-16 05:30N 52°00' E 003°56'510.9
2018-Apr-16 05:00N 51°60' E 003°48'611.3
2018-Apr-16 04:30N 51°58' E 003°39'611.7
2018-Apr-16 04:00N 51°56' E 003°30'610.7
2018-Apr-16 03:27N 51°54' E 003°21'512.1
2018-Apr-16 03:00N 51°53' E 003°12'2313.8
2018-Apr-16 01:18N 51°45' E 002°37'615.6
2018-Apr-16 00:55N 51°40' E 002°30'716.0
2018-Apr-16 00:30N 51°35' E 002°23'816.0
2018-Apr-16 00:00N 51°29' E 002°15'815.5
2018-Apr-15 23:30N 51°22' E 002°10'815.6
2018-Apr-15 23:00N 51°15' E 002°05'815.3
2018-Apr-15 22:30N 51°11' E 001°55'815.3
2018-Apr-15 22:00N 51°07' E 001°45'714.6
2018-Apr-15 21:31N 51°02' E 001°36'713.9
2018-Apr-15 21:00N 50°56' E 001°29'812.9
2018-Apr-15 20:24N 50°49' E 001°24'1612.5
2018-Apr-15 19:07N 50°36' E 001°11'213.5
2018-Apr-15 18:56N 50°34' E 001°08'1213.1
2018-Apr-15 18:02N 50°27' E 000°53'113.3
2018-Apr-15 17:59N 50°27' E 000°51'1213.2
2018-Apr-15 17:03N 50°24' E 000°33'113.0
2018-Apr-15 17:00N 50°24' E 000°32'712.8
2018-Apr-15 16:29N 50°22' E 000°22'612.5
2018-Apr-15 16:00N 50°20' E 000°13'612.4
2018-Apr-15 15:30N 50°19' E 000°03'612.2
2018-Apr-15 15:00N 50°18' W 000°06'612.1
2018-Apr-15 14:30N 50°17' W 000°15'611.8
2018-Apr-15 14:00N 50°15' W 000°24'611.6
2018-Apr-15 13:30N 50°14' W 000°33'611.5
2018-Apr-15 13:00N 50°12' W 000°42'611.4
2018-Apr-15 12:30N 50°11' W 000°50'611.8
2018-Apr-15 12:00N 50°09' W 000°59'612.3
2018-Apr-15 11:30N 50°08' W 001°08'713.0
2018-Apr-15 11:00N 50°06' W 001°18'713.8
2018-Apr-15 10:30N 50°05' W 001°29'714.6
2018-Apr-15 10:00N 50°03' W 001°40'815.3
2018-Apr-15 09:30N 50°02' W 001°52'816.0
2018-Apr-15 09:00N 49°58' W 002°03'816.5
2018-Apr-15 08:30N 49°56' W 002°15'1516.2
2018-Apr-15 07:35N 49°53' W 002°38'115.8
2018-Apr-15 07:30N 49°52' W 002°40'815.9
2018-Apr-15 07:00N 49°50' W 002°51'816.0
2018-Apr-15 06:30N 49°45' W 003°02'815.8
2018-Apr-15 06:01N 49°41' W 003°12'8015.4
2018-Apr-15 00:48N 49°02' W 004°60'514.4
2018-Apr-15 00:26N 48°59' W 005°06'614.1
2018-Apr-14 23:59N 48°56' W 005°14'713.7
2018-Apr-14 23:30N 48°52' W 005°23'713.5
2018-Apr-14 23:00N 48°49' W 005°32'3012.8
2018-Apr-14 20:38N 48°23' W 005°54'  

Dump ship's entire track history